LKTB Weather Reports


Display with metric or nautical units.
time (UTC)temp
F
wind
direction
speed
MPH
gust
MPH
rain 1hr
in
rain 24hr
in
rain mn
in
humidity
%
barometer
mb
20210726033214 61 200 5.0 0.0 0.00 0.00 0.00 100 1012.0
20210726032402 61 190 3.0 0.0 0.00 0.00 0.00 100 1012.0
20210726031454 63 240 5.0 0.0 0.00 0.00 0.00 93
20210726030230 63 250 5.0 0.0 0.00 0.00 0.00 93 1012.0
20210726023303 63 170 3.0 0.0 0.00 0.00 0.00 93 1012.0
20210726022502 63 160 3.0 0.0 0.00 0.00 0.00 93 1012.0
20210726021515 63 200 2.0 0.0 0.00 0.00 0.00 93
20210726020236 63 0 2.0 0.0 0.00 0.00 0.00 93 1012.0
20210726013222 64 250 6.0 0.0 0.00 0.00 0.00 93 1012.0
20210726011516 64 240 5.0 0.0 0.00 0.00 0.00 93
20210726010243 64 210 3.0 0.0 0.00 0.00 0.00 93 1012.0
20210726004008 64 240 3.0 0.0 0.00 0.00 0.00 93 1012.0
20210726003303 64 240 3.0 0.0 0.00 0.00 0.00 93 1012.0
20210726001528 64 220 2.0 0.0 0.00 0.00 0.00 93
20210726000229 64 0 2.0 0.0 0.00 0.00 0.00 93 1012.0
20210725233229 64 0 2.0 0.0 0.00 0.00 0.00 93 1012.0
20210725231527 63 150 5.0 0.0 0.00 0.00 0.00 99
20210725230222 63 140 5.0 0.0 0.00 0.00 0.00 100 1011.0
20210725223214 63 170 3.0 0.0 0.00 0.00 0.00 93 1011.0
20210725221526 63 170 2.0 0.0 0.00 0.00 0.00 93
20210725220221 63 190 5.0 0.0 0.00 0.00 0.00 93 1010.0
20210725213216 64 330 7.0 0.0 0.00 0.00 0.00 88 1010.0
20210725211529 64 330 9.0 0.0 0.00 0.00 0.00 88
20210725210229 64 330 8.0 0.0 0.00 0.00 0.00 88 1010.0
20210725204402 64 340 3.0 0.0 0.00 0.00 0.00 88 1010.0
20210725203503 64 310 8.0 0.0 0.00 0.00 0.00 88 1011.0
20210725203215 64 300 10.0 0.0 0.00 0.00 0.00 93 1011.0
20210725201750 63 290 14.0 0.0 0.00 0.00 0.00 93
20210725200230 63 290 14.0 0.0 0.00 0.00 0.00 93 1011.0
20210725195708 63 290 14.0 0.0 0.00 0.00 0.00 93 1011.0
20210725194404 63 250 25.0 40.0 0.00 0.00 0.00 93 1011.0
20210725194009 64 250 23.0 41.0 0.00 0.00 0.00 88 1011.0
20210725193503 73 240 20.0 41.0 0.00 0.00 0.00 64 1011.0
20210725193222 75 80 7.0 30.0 0.00 0.00 0.00 64 1009.0
20210725191755 77 50 9.0 0.0 0.00 0.00 0.00 61
20210725191720 77 60 9.0 0.0 0.00 0.00 0.00 61 1008.0
20210725190802 77 50 9.0 0.0 0.00 0.00 0.00 61 1008.0
20210725190230 77 50 8.0 30.0 0.00 0.00 0.00 61 1008.0
20210725183249 77 60 7.0 0.0 0.00 0.00 0.00 61 1009.0
20210725181559 77 70 7.0 0.0 0.00 0.00 0.00 61
20210725180244 77 80 6.0 0.0 0.00 0.00 0.00 61 1010.0
20210725173237 77 100 7.0 0.0 0.00 0.00 0.00 61 1010.0
20210725171510 79 100 9.0 0.0 0.00 0.00 0.00 54
20210725170223 81 110 9.0 0.0 0.00 0.00 0.00 51 1009.0
20210725163230 81 100 8.0 0.0 0.00 0.00 0.00 51 1010.0
20210725161542 81 100 5.0 0.0 0.00 0.00 0.00 51
20210725160224 81 120 6.0 0.0 0.00 0.00 0.00 51 1011.0
20210725153223 79 190 3.0 0.0 0.00 0.00 0.00 57 1011.0
20210725151605 79 110 5.0 0.0 0.00 0.00 0.00 57
20210725150223 79 0 2.0 0.0 0.00 0.00 0.00 57 1011.0
20210725143230 77 50 5.0 0.0 0.00 0.00 0.00 61 1011.0
20210725141544 77 70 7.0 0.0 0.00 0.00 0.00 61
20210725140230 77 0 3.0 0.0 0.00 0.00 0.00 65 1012.0
20210725133224 77 90 6.0 0.0 0.00 0.00 0.00 61 1012.0
20210725131514 75 70 5.0 0.0 0.00 0.00 0.00 64
20210725130250 75 60 6.0 0.0 0.00 0.00 0.00 64 1012.0
20210725123237 75 0 3.0 0.0 0.00 0.00 0.00 64 1012.0
20210725121512 73 70 5.0 0.0 0.00 0.00 0.00 69
20210725120245 72 80 5.0 0.0 0.00 0.00 0.00 73 1012.0
20210725113236 72 60 5.0 0.0 0.00 0.00 0.00 73 1012.0
20210725112104 70 60 6.0 0.0 0.00 0.00 0.00 73 1013.0
20210725111456 68 60 9.0 0.0 0.00 0.00 0.00 77
20210725110224 70 60 7.0 0.0 0.00 0.00 0.00 77 1013.0
20210725103223 68 70 9.0 0.0 0.00 0.00 0.00 77 1013.0
20210725101454 66 70 7.0 0.0 0.00 0.00 0.00 82
20210725100223 66 70 9.0 0.0 0.00 0.00 0.00 82 1013.0
20210725093223 64 80 9.0 0.0 0.00 0.00 0.00 88 1013.0
20210725091804 66 90 8.0 0.0 0.00 0.00 0.00 82 1013.0
20210725091455 64 100 9.0 0.0 0.00 0.00 0.00 88
20210725090217 64 90 9.0 0.0 0.00 0.00 0.00 88 1013.0
20210725085209 64 90 9.0 0.0 0.00 0.00 0.00 88 1013.0
20210725083223 64 100 8.0 0.0 0.00 0.00 0.00 88 1013.0
20210725082305 64 100 8.0 0.0 0.00 0.00 0.00 93 1013.0
20210725081455 64 90 7.0 0.0 0.00 0.00 0.00 93
20210725080223 64 90 9.0 0.0 0.00 0.00 0.00 88 1013.0
20210725073223 64 90 9.0 0.0 0.00 0.00 0.00 93 1013.0
20210725071456 64 90 9.0 0.0 0.00 0.00 0.00 93
20210725070224 64 90 9.0 0.0 0.00 0.00 0.00 93 1012.0
20210725065910 64 90 9.0 0.0 0.00 0.00 0.00 93 1012.0
20210725064710 64 90 7.0 0.0 0.00 0.00 0.00 93 1012.0
20210725063224 64 80 8.0 0.0 0.00 0.00 0.00 93 1012.0
20210725062905 64 80 8.0 0.0 0.00 0.00 0.00 93 1012.0
20210725061454 64 60 7.0 0.0 0.00 0.00 0.00 88
20210725060305 64 70 7.0 0.0 0.00 0.00 0.00 93 1012.0
20210725055917 64 70 7.0 0.0 0.00 0.00 0.00 93 1012.0
20210725053217 64 70 6.0 0.0 0.00 0.00 0.00 93 1012.0
20210725051454 64 90 5.0 0.0 0.00 0.00 0.00 88
20210725050224 64 90 6.0 0.0 0.00 0.00 0.00 93 1012.0
20210725043304 64 80 6.0 0.0 0.00 0.00 0.00 88 1012.0
20210725041510 64 90 7.0 0.0 0.00 0.00 0.00 88
20210725040223 64 80 3.0 0.0 0.00 0.00 0.00 88 1012.0